Time;durP1;ratioP1;P1;durP2;ratioP2;P2;SDS_P1;SDS_P2;PMS_P1;PMS_P2;Temp;Humidity;BMP_temperature;BMP_pressure;BME280_temperature;BME280_humidity;BME280_pressure;Samples;Min_cycle;Max_cycle;Signal;HPM_P1;HPM_P2
2023/10/16 00:04:18;;;;;;;0.90;0.40;;;;;;;;;;20634878;28;20235;-86
2023/10/16 00:14:23;;;;;;;1.13;0.57;;;;;;;;;;20645985;28;20220;-85
2023/10/16 00:24:28;;;;;;;1.03;0.40;;;;;;;;;;20625618;28;20224;-87
2023/10/16 00:34:33;;;;;;;1.27;0.50;;;;;;;;;;20974674;28;20225;-86
2023/10/16 00:44:35;;;;;;;0.30;0.20;;;;;;;;;;20937307;28;20581;-86
2023/10/16 00:54:39;;;;;;;1.87;0.60;;;;;;;;;;20968516;28;20634;-86
2023/10/16 01:04:41;;;;;;;0.87;0.50;;;;;;;;;;20963137;28;20209;-86
2023/10/16 01:14:44;;;;;;;1.20;0.50;;;;;;;;;;20956262;28;20232;-85
2023/10/16 01:24:45;;;;;;;1.27;0.40;;;;;;;;;;20972674;28;20224;-86
2023/10/16 01:34:47;;;;;;;1.00;0.40;;;;;;;;;;20934481;28;20217;-86
2023/10/16 01:44:52;;;;;;;1.00;0.43;;;;;;;;;;20970774;28;20273;-86
2023/10/16 01:54:56;;;;;;;1.20;0.50;;;;;;;;;;20960063;28;20233;-85
2023/10/16 02:04:59;;;;;;;1.30;0.40;;;;;;;;;;20986023;28;20357;-86
2023/10/16 02:15:05;;;;;;;0.50;0.37;;;;;;;;;;20988241;28;20235;-86
2023/10/16 02:25:17;;;;;;;0.40;0.20;;;;;;;;;;20984057;28;20252;-84
2023/10/16 02:35:19;;;;;;;0.80;0.40;;;;;;;;;;20961713;28;20266;-86
2023/10/16 02:45:27;;;;;;;0.30;0.30;;;;;;;;;;20973204;28;20214;-84
2023/10/16 02:55:30;;;;;;;0.43;0.30;;;;;;;;;;21026819;28;20247;-86
2023/10/16 03:05:32;;;;;;;0.40;0.20;;;;;;;;;;20947916;28;20221;-85
2023/10/16 03:15:46;;;;;;;0.73;0.33;;;;;;;;;;20962672;28;20277;-88
2023/10/16 03:25:51;;;;;;;0.70;0.40;;;;;;;;;;20986043;28;20237;-86
2023/10/16 03:35:57;;;;;;;1.47;0.60;;;;;;;;;;20948144;28;20221;-86
2023/10/16 03:46:02;;;;;;;0.60;0.43;;;;;;;;;;20928213;22;20291;-65
2023/10/16 03:56:10;;;;;;;1.10;0.50;;;;;;;;;;20847633;28;20283;-67
2023/10/16 04:06:11;;;;;;;0.47;0.30;;;;;;;;;;20848415;28;20256;-68
2023/10/16 04:16:25;;;;;;;0.30;0.30;;;7.40;99.90;;;;;;20857825;28;20279;-67
2023/10/16 04:37:24;;;;;;;1.10;0.40;;;6.80;99.90;;;;;;20886024;28;20206;-67
2023/10/16 04:46:55;;;;;;;0.40;0.30;;;;;;;;;;20879965;28;20596;-67
2023/10/16 05:07:17;;;;;;;2.10;1.17;;;;;;;;;;20876802;28;20229;-67
2023/10/16 05:17:22;;;;;;;1.00;0.53;;;;;;;;;;20849550;28;20225;-67
2023/10/16 06:19:14;;;;;;;6.43;1.47;;;;;;;;;;20878808;28;20279;-67
2023/10/16 06:29:16;;;;;;;2.80;0.77;;;;;;;;;;20882415;28;20302;-67
2023/10/16 06:39:29;;;;;;;1.07;0.53;;;6.70;99.90;;;;;;20878862;28;20272;-67
2023/10/16 06:49:37;;;;;;;1.47;0.50;;;6.70;99.90;;;;;;20878758;28;20267;-67
2023/10/16 06:59:42;;;;;;;2.60;0.70;;;6.80;99.90;;;;;;20878012;28;20221;-67
2023/10/16 07:09:51;;;;;;;2.23;0.60;;;;;;;;;;20854445;28;20236;-67
2023/10/16 07:20:00;;;;;;;1.77;0.63;;;7.20;99.90;;;;;;20842694;28;20222;-67
2023/10/16 07:30:21;;;;;;;2.60;0.60;;;;;;;;;;20912192;23;20226;-87
2023/10/16 07:40:26;;;;;;;1.97;0.67;;;;;;;;;;20923561;28;20212;-86
2023/10/16 07:50:27;;;;;;;1.03;0.50;;;;;;;;;;20920636;28;20221;-86
2023/10/16 08:00:41;;;;;;;1.53;0.63;;;;;;;;;;20949081;28;20218;-86
2023/10/16 08:10:43;;;;;;;1.40;0.50;;;;;;;;;;20937582;28;20226;-87
2023/10/16 08:20:49;;;;;;;3.30;1.00;;;;;;;;;;20935720;28;20209;-87
2023/10/16 08:30:53;;;;;;;3.10;0.80;;;;;;;;;;20929068;28;20524;-89
2023/10/16 08:41:06;;;;;;;2.33;0.80;;;;;;;;;;20957367;28;20217;-87
2023/10/16 08:51:08;;;;;;;2.30;1.30;;;;;;;;;;20907272;28;20228;-85
2023/10/16 09:01:12;;;;;;;5.53;1.00;;;;;;;;;;20952142;28;20217;-87
2023/10/16 09:11:16;;;;;;;2.97;1.10;;;;;;;;;;20953886;28;20286;-88
2023/10/16 09:21:23;;;;;;;2.07;1.10;;;;;;;;;;20964681;28;20201;-88
2023/10/16 09:31:24;;;;;;;1.77;0.77;;;10.30;99.90;;;;;;20939239;28;20248;-87
2023/10/16 09:51:28;;;;;;;2.10;1.10;;;;;;;;;;20924439;28;20213;-86
2023/10/16 10:01:31;;;;;;;2.20;1.13;;;;;;;;;;20938956;28;20310;-87
2023/10/16 10:12:22;;;;;;;7.07;1.20;;;;;;;;;;20937384;28;20294;-85
2023/10/16 10:22:06;;;;;;;3.77;1.23;;;;;;;;;;20918456;28;20248;-86
2023/10/16 10:32:12;;;;;;;2.43;1.30;;;;;;;;;;20933936;28;20221;-85
2023/10/16 10:42:23;;;;;;;1.80;1.10;;;;;;;;;;20924858;28;20209;-84
2023/10/16 10:52:27;;;;;;;2.10;1.40;;;;;;;;;;20940044;28;20221;-85
2023/10/16 11:12:30;;;;;;;1.00;0.60;;;;;;;;;;20984574;28;20639;-86
2023/10/16 11:22:34;;;;;;;3.13;0.70;;;;;;;;;;20931650;28;20263;-87
2023/10/16 11:32:48;;;;;;;1.33;0.50;;;;;;;;;;20937808;28;20225;-87
2023/10/16 11:42:52;;;;;;;1.30;0.60;;;;;;;;;;20950516;28;20213;-87
2023/10/16 11:52:55;;;;;;;0.87;0.47;;;;;;;;;;20889446;28;20222;-88
2023/10/16 12:02:57;;;;;;;1.47;0.70;;;;;;;;;;20912407;28;20226;-87
2023/10/16 12:13:00;;;;;;;0.50;0.40;;;;;;;;;;20944601;28;20225;-87
2023/10/16 12:23:03;;;;;;;1.07;0.43;;;;;;;;;;20955729;28;20208;-87
2023/10/16 12:33:05;;;;;;;1.27;0.43;;;;;;;;;;20921688;28;20728;-87
2023/10/16 12:43:08;;;;;;;0.97;0.40;;;;;;;;;;20949275;28;20206;-85
2023/10/16 12:53:10;;;;;;;1.40;0.50;;;;;;;;;;20975107;28;20581;-86
2023/10/16 13:03:15;;;;;;;0.97;0.53;;;;;;;;;;20952934;28;20221;-85
2023/10/16 13:13:20;;;;;;;0.67;0.30;;;;;;;;;;20906182;28;20233;-86
2023/10/16 13:23:21;;;;;;;1.30;0.40;;;;;;;;;;20927399;28;20611;-84
2023/10/16 13:33:24;;;;;;;0.53;0.47;;;;;;;;;;20921113;28;20229;-84
2023/10/16 13:43:26;;;;;;;1.17;0.50;;;;;;;;;;20952441;28;20238;-85
2023/10/16 13:53:27;;;;;;;1.23;0.40;;;;;;;;;;20917415;28;20225;-86
2023/10/16 14:03:29;;;;;;;1.10;0.50;;;;;;;;;;20957213;28;20739;-85
2023/10/16 14:13:37;;;;;;;0.90;0.40;;;;;;;;;;20953550;28;20295;-86
2023/10/16 14:23:39;;;;;;;1.30;0.53;;;;;;;;;;20970519;28;20205;-85
2023/10/16 14:33:42;;;;;;;1.20;0.50;;;;;;;;;;20985158;28;20283;-87
2023/10/16 14:43:45;;;;;;;0.37;0.37;;;;;;;;;;20953503;28;20202;-85
2023/10/16 14:53:50;;;;;;;1.17;0.57;;;12.10;99.90;;;;;;20944704;28;20282;-84
2023/10/16 15:03:53;;;;;;;0.67;0.37;;;;;;;;;;20949209;28;20247;-86
2023/10/16 15:13:56;;;;;;;0.57;0.37;;;;;;;;;;20967611;28;20283;-86
2023/10/16 15:23:58;;;;;;;0.90;0.30;;;;;;;;;;20919639;28;20283;-85
2023/10/16 15:33:59;;;;;;;1.43;0.57;;;12.00;99.90;;;;;;20921976;28;20286;-85
2023/10/16 15:44:02;;;;;;;0.30;0.30;;;;;;;;;;20899552;28;20213;-86
2023/10/16 15:54:04;;;;;;;1.63;0.47;;;;;;;;;;20941815;28;20221;-86
2023/10/16 16:04:07;;;;;;;1.13;0.67;;;;;;;;;;20974184;28;20264;-85
2023/10/16 16:14:12;;;;;;;0.47;0.40;;;;;;;;;;20927968;28;20256;-85
2023/10/16 16:24:14;;;;;;;0.37;0.30;;;;;;;;;;20929574;28;20741;-86
2023/10/16 16:34:16;;;;;;;3.83;0.90;;;;;;;;;;20947088;28;20210;-84
2023/10/16 16:44:19;;;;;;;1.00;0.50;;;;;;;;;;20901823;28;20294;-85
2023/10/16 16:54:21;;;;;;;1.60;0.87;;;;;;;;;;20934442;28;20229;-84
2023/10/16 17:04:23;;;;;;;1.17;0.60;;;;;;;;;;20953944;28;20706;-85
2023/10/16 17:14:29;;;;;;;0.93;0.40;;;;;;;;;;20969010;28;20229;-84
2023/10/16 17:24:30;;;;;;;2.67;1.17;;;;;;;;;;20930690;28;20266;-85
2023/10/16 17:34:34;;;;;;;1.67;1.17;;;;;;;;;;20970626;28;20217;-84
2023/10/16 17:44:37;;;;;;;2.27;1.30;;;;;;;;;;21008570;28;20292;-87
2023/10/16 17:54:40;;;;;;;2.30;1.03;;;;;;;;;;20903328;28;20228;-84
2023/10/16 18:04:42;;;;;;;5.00;0.70;;;10.90;99.90;;;;;;20958136;28;20264;-83
2023/10/16 18:14:46;;;;;;;2.00;0.60;;;;;;;;;;20921858;28;20223;-84
2023/10/16 18:24:48;;;;;;;1.47;0.70;;;;;;;;;;20950955;28;20677;-83
2023/10/16 18:34:53;;;;;;;0.43;0.40;;;;;;;;;;20960673;28;20232;-83
2023/10/16 18:44:55;;;;;;;2.47;0.60;;;;;;;;;;20969454;28;20217;-86
2023/10/16 18:54:58;;;;;;;1.47;0.77;;;;;;;;;;20939107;28;20313;-86
2023/10/16 19:05:08;;;;;;;2.43;1.00;;;;;;;;;;20927938;28;20681;-87
2023/10/16 19:15:10;;;;;;;2.20;0.77;;;;;;;;;;20934377;28;20236;-86
2023/10/16 19:25:14;;;;;;;1.10;0.50;;;;;;;;;;20944437;28;20217;-87
2023/10/16 19:35:16;;;;;;;3.63;0.80;;;;;;;;;;20963518;28;20225;-87
2023/10/16 19:45:19;;;;;;;3.93;0.80;;;;;;;;;;20961817;28;20271;-87
2023/10/16 19:55:25;;;;;;;3.10;0.73;;;;;;;;;;20981410;28;20229;-86
2023/10/16 20:05:27;;;;;;;0.87;0.60;;;;;;;;;;20942638;28;20221;-87
2023/10/16 20:15:30;;;;;;;1.43;0.73;;;;;;;;;;20914601;23;20693;-67
2023/10/16 20:25:43;;;;;;;1.60;0.97;;;10.10;99.90;;;;;;20861249;28;20236;-67
2023/10/16 20:35:45;;;;;;;1.87;0.60;;;;;;;;;;20850439;28;20688;-68
2023/10/16 20:45:47;;;;;;;1.40;0.80;;;;;;;;;;20840760;28;20279;-68
2023/10/16 20:55:51;;;;;;;1.90;0.70;;;;;;;;;;20866132;28;20287;-68
2023/10/16 21:05:53;;;;;;;1.07;0.73;;;;;;;;;;20857361;28;20222;-67
2023/10/16 21:15:55;;;;;;;3.43;1.00;;;;;;;;;;20860106;28;20225;-69
2023/10/16 21:25:57;;;;;;;3.97;2.50;;;;;;;;;;20876805;28;20256;-67
2023/10/16 21:36:05;;;;;;;6.47;3.07;;;;;;;;;;20831989;28;20226;-68
2023/10/16 21:46:07;;;;;;;5.13;2.40;;;;;;;;;;20847686;28;20214;-68
2023/10/16 21:56:09;;;;;;;1.73;0.97;;;;;;;;;;20853727;28;20221;-68
2023/10/16 22:06:13;;;;;;;4.10;1.70;;;;;;;;;;20863494;28;20567;-68
2023/10/16 22:16:18;;;;;;;1.30;0.70;;;;;;;;;;20879457;28;20225;-65
2023/10/16 22:26:20;;;;;;;1.93;0.80;;;;;;;;;;20863681;28;20270;-66
2023/10/16 22:36:24;;;;;;;2.87;1.60;;;;;;;;;;20863185;28;20221;-65
2023/10/16 22:46:26;;;;;;;2.27;1.00;;;9.10;99.90;;;;;;20859900;28;20608;-65
2023/10/16 22:56:29;;;;;;;1.87;0.87;;;;;;;;;;20873935;28;20217;-66
2023/10/16 23:06:31;;;;;;;0.67;0.40;;;;;;;;;;20862274;28;20534;-66
2023/10/16 23:16:36;;;;;;;2.03;0.83;;;;;;;;;;20872570;28;20241;-66
2023/10/16 23:26:39;;;;;;;1.93;1.20;;;;;;;;;;20872822;28;20271;-66
2023/10/16 23:36:40;;;;;;;2.03;0.80;;;;;;;;;;20858493;28;20252;-67
2023/10/16 23:46:43;;;;;;;2.77;1.30;;;;;;;;;;20858508;28;20222;-67
2023/10/16 23:57:22;;;;;;;4.20;1.10;;;;;;;;;;20855617;28;20225;-66
